KJDN

Jordan Airport

Jordan, Montana, USA
METAR KJDN 231548Z AUTO 00000KT M24/M27 A3015 RMK AO1 SLP299 T12391267
Observed Flight Rules
Feb-23 @ 15:48 UTC (45 minutes ago)
Wind
Calm
Temperatures Readings
Current -24°C / -11°F
Dewpoint -27°C / -17°F
Humidity 76%
Altimeter 30.15" Hg
Pressure 1029.9 hPa
Elevation 801
METAR KJDN 231548Z AUTO 00000KT M24/M27 A3015 RMK AO1 SLP299 T12391267
Observed Flight Rules
Feb-23 @ 15:48 UTC
(45 minutes ago)
Wind
Calm
Temperature Dewpoint
-24°C / -11°F -27°C / -17°F
Humidity Altimeter Pressure
76% 30.15" Hg 1029.9 hPa